Terminal Aerodrome Forecast
Issued by NWS Quad Cities IA IL

Home | Current Version | Previous Version | Text Only | Print | Product List | Glossary On
Versions: 1 2 3 4 5 6 7 8 9 10 11 12 13 14 15 16 17 18 19
808
FTUS43 KDVN 171731
TAFMLI
TAF
KMLI 171731Z 1718/1818 11006KT 6SM HZ SCT120
     FM171900 VRB04KT P6SM -RA BKN040
     FM172100 18004KT 6SM BR BKN030
     FM180100 16004KT 3SM -DZ BR OVC015
     FM180700 26006KT 3SM BR OVC008=

USA.gov is the U.S. government's official web portal to all federal, state and local government web resources and services.